Time;durP1;ratioP1;P1;durP2;ratioP2;P2;SDS_P1;SDS_P2;PMS_P1;PMS_P2;Temp;Humidity;BMP_temperature;BMP_pressure;BME280_temperature;BME280_humidity;BME280_pressure;Samples;Min_cycle;Max_cycle;Signal;HPM_P1;HPM_P2
2023/01/08 00:01:52;;;;;;;27.58;5.07;;;8.00;99.90;;;;;;5055778;28;20071;-50
2023/01/08 00:04:19;;;;;;;22.25;3.85;;;8.00;99.90;;;;;;5054329;28;20056;-55
2023/01/08 00:06:46;;;;;;;29.98;4.55;;;8.00;99.90;;;;;;5055324;28;20098;-54
2023/01/08 00:09:12;;;;;;;24.27;4.30;;;8.00;99.90;;;;;;5054525;28;20041;-54
2023/01/08 00:11:39;;;;;;;23.63;4.85;;;8.00;99.90;;;;;;5055657;28;20033;-49
2023/01/08 00:14:06;;;;;;;24.20;3.40;;;7.90;99.90;;;;;;5035979;28;20045;-55
2023/01/08 00:16:33;;;;;;;21.02;4.57;;;8.00;99.90;;;;;;5051508;28;20456;-57
2023/01/08 00:19:00;;;;;;;25.85;4.18;;;7.90;99.90;;;;;;5035619;28;20493;-52
2023/01/08 00:21:26;;;;;;;27.17;4.20;;;8.00;99.90;;;;;;5049406;28;20132;-51
2023/01/08 00:23:53;;;;;;;22.60;4.30;;;8.00;99.90;;;;;;5054836;28;20036;-52
2023/01/08 00:26:20;;;;;;;20.98;4.50;;;8.10;99.90;;;;;;5053798;28;20094;-51
2023/01/08 00:28:50;;;;;;;23.05;4.32;;;8.10;99.90;;;;;;5054744;28;20392;-53
2023/01/08 00:31:17;;;;;;;18.23;5.10;;;8.10;99.90;;;;;;5053951;28;20033;-51
2023/01/08 00:33:43;;;;;;;23.02;4.00;;;8.10;99.90;;;;;;5054702;28;20072;-54
2023/01/08 00:36:10;;;;;;;21.92;3.83;;;8.20;99.90;;;;;;5054603;28;20111;-54
2023/01/08 00:38:37;;;;;;;25.80;4.65;;;8.20;99.90;;;;;;5054296;28;20488;-53
2023/01/08 00:41:03;;;;;;;27.15;4.25;;;8.20;99.90;;;;;;5055052;28;20369;-54
2023/01/08 00:43:30;;;;;;;21.98;3.28;;;8.20;99.90;;;;;;5053888;28;20079;-54
2023/01/08 00:45:57;;;;;;;24.90;3.40;;;8.20;99.90;;;;;;5054582;28;20545;-57
2023/01/08 00:48:24;;;;;;;21.15;4.38;;;8.20;99.90;;;;;;5053716;28;20119;-53
2023/01/08 00:50:50;;;;;;;23.33;4.28;;;8.10;99.90;;;;;;5054517;28;20040;-53
2023/01/08 00:53:17;;;;;;;24.67;3.75;;;8.20;99.90;;;;;;5053591;28;20033;-52
2023/01/08 00:55:44;;;;;;;25.73;3.67;;;8.20;99.90;;;;;;5053359;28;20542;-56
2023/01/08 00:58:11;;;;;;;28.48;4.15;;;8.10;99.90;;;;;;5052044;28;20049;-50
2023/01/08 01:00:37;;;;;;;30.33;4.25;;;8.10;99.90;;;;;;5044221;28;20037;-52
2023/01/08 01:03:04;;;;;;;29.13;4.90;;;8.10;99.90;;;;;;5046184;28;20048;-56
2023/01/08 01:05:31;;;;;;;29.83;4.60;;;8.10;99.90;;;;;;5054277;28;20045;-51
2023/01/08 01:07:58;;;;;;;26.40;4.93;;;8.20;99.90;;;;;;5053397;28;20048;-53
2023/01/08 01:10:24;;;;;;;30.17;4.50;;;8.20;99.90;;;;;;5054315;28;20546;-54
2023/01/08 01:12:51;;;;;;;25.27;4.18;;;8.20;99.90;;;;;;5046741;28;20537;-52
2023/01/08 01:15:18;;;;;;;23.00;4.40;;;8.20;99.90;;;;;;5052686;28;20041;-56
2023/01/08 01:17:45;;;;;;;28.70;4.00;;;8.20;99.90;;;;;;5052619;28;20067;-53
2023/01/08 01:20:11;;;;;;;29.00;4.82;;;8.20;99.90;;;;;;5053958;28;20061;-56
2023/01/08 01:22:38;;;;;;;29.45;5.00;;;8.20;99.90;;;;;;5052904;28;20076;-54
2023/01/08 01:25:05;;;;;;;25.77;4.70;;;8.20;99.90;;;;;;5053858;28;20049;-54
2023/01/08 01:27:32;;;;;;;23.90;3.90;;;8.20;99.90;;;;;;5050845;28;20049;-54
2023/01/08 01:29:58;;;;;;;33.88;4.90;;;8.20;99.90;;;;;;5034520;28;20551;-53
2023/01/08 01:32:25;;;;;;;30.70;4.75;;;8.20;99.90;;;;;;5034610;28;20033;-54
2023/01/08 01:34:52;;;;;;;26.45;4.97;;;8.20;99.90;;;;;;5052588;28;20041;-51
2023/01/08 01:37:18;;;;;;;27.60;4.63;;;8.20;99.90;;;;;;5053629;28;20114;-52
2023/01/08 01:39:45;;;;;;;31.75;6.68;;;8.20;99.90;;;;;;5052827;28;20082;-57
2023/01/08 01:42:38;;;;;;;32.67;4.78;;;8.30;99.90;;;;;;5053606;28;20103;-53
2023/01/08 01:44:59;;;;;;;30.65;4.65;;;8.30;99.90;;;;;;5053007;28;20419;-55
2023/01/08 01:47:25;;;;;;;27.17;4.45;;;8.30;99.90;;;;;;5052996;28;20551;-56
2023/01/08 01:49:52;;;;;;;30.92;5.20;;;8.30;99.90;;;;;;5052703;28;20139;-57
2023/01/08 01:52:21;;;;;;;30.73;6.70;;;8.30;99.90;;;;;;5043079;28;20095;-52
2023/01/08 01:54:47;;;;;;;25.30;4.07;;;8.40;99.90;;;;;;5045822;28;20043;-52
2023/01/08 01:57:14;;;;;;;27.02;4.07;;;8.40;99.90;;;;;;5052916;28;20033;-56
2023/01/08 01:59:41;;;;;;;26.10;4.45;;;8.40;99.90;;;;;;5051689;28;20451;-56
2023/01/08 02:02:08;;;;;;;30.77;5.00;;;8.40;99.90;;;;;;5052686;28;20095;-54
2023/01/08 02:04:35;;;;;;;27.92;4.40;;;8.50;99.90;;;;;;5052268;28;20492;-54
2023/01/08 02:07:02;;;;;;;31.58;5.53;;;8.50;99.90;;;;;;5053047;28;20076;-55
2023/01/08 02:09:29;;;;;;;25.30;5.32;;;8.50;99.90;;;;;;5046041;28;20448;-53
2023/01/08 02:14:41;;;;;;;29.90;5.43;;;8.50;99.90;;;;;;5052553;28;20045;-55
2023/01/08 02:17:08;;;;;;;31.75;4.93;;;8.40;99.90;;;;;;5052761;28;20061;-52
2023/01/08 02:19:34;;;;;;;28.95;4.78;;;8.50;99.90;;;;;;5052945;28;20423;-57
2023/01/08 02:22:02;;;;;;;27.90;5.07;;;8.50;99.90;;;;;;5041669;28;20045;-53
2023/01/08 02:24:29;;;;;;;29.48;4.93;;;8.50;99.90;;;;;;5033579;28;20443;-52
2023/01/08 02:26:55;;;;;;;25.60;4.43;;;8.50;99.90;;;;;;5043290;28;20087;-51
2023/01/08 02:29:22;;;;;;;31.45;5.25;;;8.50;99.90;;;;;;5052877;28;20404;-51
2023/01/08 02:31:49;;;;;;;34.17;6.35;;;8.60;99.90;;;;;;5052608;28;20033;-48
2023/01/08 02:34:15;;;;;;;27.95;6.63;;;8.60;99.90;;;;;;5035589;28;20041;-51
2023/01/08 02:36:42;;;;;;;27.02;4.38;;;8.50;99.90;;;;;;5050534;28;20041;-51
2023/01/08 02:39:09;;;;;;;29.40;4.45;;;8.50;99.90;;;;;;5045074;28;20123;-57
2023/01/08 02:41:36;;;;;;;31.65;4.78;;;8.50;99.90;;;;;;5052470;28;20480;-55
2023/01/08 02:44:02;;;;;;;27.52;4.93;;;8.60;99.90;;;;;;5052692;28;20041;-54
2023/01/08 02:46:29;;;;;;;26.45;4.05;;;8.60;99.90;;;;;;5052360;28;20041;-53
2023/01/08 02:48:56;;;;;;;19.05;4.40;;;8.60;99.90;;;;;;5052512;28;20056;-53
2023/01/08 02:51:22;;;;;;;24.02;4.28;;;8.60;99.90;;;;;;5050002;28;20095;-56
2023/01/08 02:53:50;;;;;;;22.00;3.50;;;8.50;99.90;;;;;;5052610;28;20055;-52
2023/01/08 02:56:16;;;;;;;18.45;4.32;;;8.50;99.90;;;;;;5050037;28;20125;-54
2023/01/08 02:58:43;;;;;;;19.02;3.70;;;8.50;99.90;;;;;;5052489;28;20621;-53
2023/01/08 03:01:10;;;;;;;24.48;4.63;;;8.40;99.90;;;;;;5052660;28;20041;-51
2023/01/08 03:03:37;;;;;;;19.48;3.42;;;8.40;99.90;;;;;;5052635;28;20045;-50
2023/01/08 03:06:04;;;;;;;19.33;3.72;;;8.40;99.90;;;;;;5052130;28;20045;-49
2023/01/08 03:08:30;;;;;;;19.67;3.45;;;8.40;99.90;;;;;;5036413;28;20050;-51
2023/01/08 03:10:57;;;;;;;19.70;3.45;;;8.40;99.90;;;;;;5033373;28;20493;-53
2023/01/08 03:13:24;;;;;;;18.10;3.50;;;8.40;99.90;;;;;;5033139;28;20087;-52
2023/01/08 03:15:51;;;;;;;17.95;3.22;;;8.50;99.90;;;;;;5033107;28;20168;-53
2023/01/08 03:18:17;;;;;;;20.20;3.70;;;8.40;99.90;;;;;;5034152;28;20049;-51
2023/01/08 03:20:44;;;;;;;21.40;3.53;;;8.40;99.90;;;;;;5037225;28;20102;-52
2023/01/08 03:23:11;;;;;;;16.42;3.15;;;8.40;99.90;;;;;;5036965;28;20875;-52
2023/01/08 03:25:38;;;;;;;16.50;3.22;;;8.40;99.90;;;;;;5052343;28;20052;-52
2023/01/08 03:28:04;;;;;;;16.35;2.88;;;8.30;99.90;;;;;;5055974;28;20045;-56
2023/01/08 03:30:31;;;;;;;18.63;3.40;;;8.30;99.90;;;;;;5055398;28;20083;-54
2023/01/08 03:32:58;;;;;;;19.02;3.28;;;8.20;99.90;;;;;;5056346;28;20100;-54
2023/01/08 03:35:25;;;;;;;15.75;3.08;;;8.20;99.90;;;;;;5056012;28;20045;-54
2023/01/08 03:37:51;;;;;;;13.23;3.08;;;8.10;99.90;;;;;;5053538;28;20451;-59
2023/01/08 03:40:18;;;;;;;20.73;3.40;;;8.10;99.90;;;;;;5036718;28;20076;-54
2023/01/08 03:42:45;;;;;;;28.83;3.92;;;8.10;99.90;;;;;;5035545;28;20459;-54
2023/01/08 03:45:11;;;;;;;22.85;3.78;;;8.00;99.90;;;;;;5036602;28;20114;-53
2023/01/08 03:47:38;;;;;;;25.45;4.00;;;8.00;99.90;;;;;;5042465;28;20040;-54
2023/01/08 03:50:05;;;;;;;22.33;4.18;;;8.00;99.90;;;;;;5055508;28;20439;-50
2023/01/08 03:52:32;;;;;;;17.52;3.78;;;8.00;99.90;;;;;;5055415;28;20098;-53
2023/01/08 03:54:58;;;;;;;21.02;4.28;;;8.00;99.90;;;;;;5054883;28;20041;-55
2023/01/08 03:57:25;;;;;;;19.30;4.00;;;8.00;99.90;;;;;;5055623;28;20045;-56
2023/01/08 03:59:52;;;;;;;29.90;5.05;;;8.00;99.90;;;;;;5054823;28;20109;-55
2023/01/08 04:02:18;;;;;;;22.95;3.90;;;8.10;99.90;;;;;;5055591;28;20103;-55
2023/01/08 04:04:45;;;;;;;19.77;4.13;;;8.00;99.90;;;;;;5055306;28;20055;-48
2023/01/08 04:07:12;;;;;;;24.83;3.83;;;8.10;99.90;;;;;;5055493;28;20045;-56
2023/01/08 04:09:39;;;;;;;26.77;4.57;;;8.00;99.90;;;;;;5055251;28;20037;-52
2023/01/08 04:12:06;;;;;;;21.55;3.85;;;8.00;99.90;;;;;;5055380;28;20103;-50
2023/01/08 04:14:32;;;;;;;23.27;4.60;;;8.00;99.90;;;;;;5054008;28;20041;-53
2023/01/08 04:16:59;;;;;;;30.13;5.00;;;8.00;99.90;;;;;;5055216;28;20090;-55
2023/01/08 04:19:26;;;;;;;23.42;3.97;;;7.90;99.90;;;;;;5054955;28;20060;-55
2023/01/08 04:21:53;;;;;;;20.88;3.40;;;8.00;99.90;;;;;;5054450;28;20036;-51
2023/01/08 04:24:19;;;;;;;27.02;3.60;;;7.90;99.90;;;;;;5055313;28;20072;-52
2023/01/08 04:26:46;;;;;;;19.85;3.05;;;7.90;99.90;;;;;;5054768;28;20037;-55
2023/01/08 04:29:13;;;;;;;22.00;3.10;;;7.80;99.90;;;;;;5053660;28;20041;-52
2023/01/08 04:31:40;;;;;;;13.50;3.08;;;7.70;99.90;;;;;;5054807;28;20037;-56
2023/01/08 04:34:06;;;;;;;20.50;3.50;;;7.70;99.90;;;;;;5041715;28;20484;-52
2023/01/08 04:36:33;;;;;;;19.60;3.47;;;7.70;99.90;;;;;;5053491;28;20053;-48
2023/01/08 04:39:00;;;;;;;24.25;3.80;;;7.70;99.90;;;;;;5035321;28;20052;-51
2023/01/08 04:41:26;;;;;;;27.85;3.75;;;7.80;99.90;;;;;;5035197;28;20050;-50
2023/01/08 04:43:53;;;;;;;29.88;4.72;;;7.80;99.90;;;;;;5034965;28;20053;-53
2023/01/08 04:46:20;;;;;;;31.63;4.85;;;7.90;99.90;;;;;;5035432;28;20103;-54
2023/01/08 04:48:47;;;;;;;24.67;4.15;;;7.90;99.90;;;;;;5045364;28;20456;-53
2023/01/08 04:51:14;;;;;;;34.50;4.57;;;8.00;99.90;;;;;;5054798;28;20098;-52
2023/01/08 04:53:40;;;;;;;12.35;2.17;;;8.10;99.90;;;;;;5052537;28;20087;-50
2023/01/08 04:56:07;;;;;;;11.60;2.10;;;8.00;99.90;;;;;;5054309;28;20075;-49
2023/01/08 04:58:34;;;;;;;7.65;1.63;;;7.90;99.90;;;;;;5053636;28;20404;-47
2023/01/08 05:01:01;;;;;;;7.78;1.17;;;7.70;99.90;;;;;;5054235;28;20487;-52
2023/01/08 05:03:27;;;;;;;5.95;1.55;;;7.60;99.90;;;;;;5054419;28;20492;-53
2023/01/08 05:05:54;;;;;;;5.05;1.13;;;7.40;99.90;;;;;;5053339;28;20052;-49
2023/01/08 05:08:21;;;;;;;7.10;2.13;;;7.40;99.90;;;;;;5054379;28;20091;-48
2023/01/08 05:10:47;;;;;;;7.75;1.70;;;7.30;99.90;;;;;;5054497;28;20041;-50
2023/01/08 05:13:14;;;;;;;7.78;1.42;;;7.30;99.90;;;;;;5054211;28;20040;-48
2023/01/08 05:15:41;;;;;;;11.43;1.90;;;7.30;99.90;;;;;;5053950;28;20048;-51
2023/01/08 05:18:08;;;;;;;8.82;1.80;;;7.30;99.90;;;;;;5053718;28;20053;-46
2023/01/08 05:20:34;;;;;;;10.85;1.65;;;7.30;99.90;;;;;;5053932;28;20045;-54
2023/01/08 05:23:01;;;;;;;9.35;2.08;;;7.30;99.90;;;;;;5053737;28;20049;-54
2023/01/08 05:25:28;;;;;;;6.50;1.45;;;7.40;99.90;;;;;;5053836;28;20056;-52
2023/01/08 05:27:55;;;;;;;8.63;1.80;;;7.40;99.90;;;;;;5054006;28;20045;-50
2023/01/08 05:30:21;;;;;;;9.40;2.60;;;7.40;99.90;;;;;;5053790;28;20069;-48
2023/01/08 05:32:48;;;;;;;12.80;1.73;;;7.40;99.90;;;;;;5053985;28;20044;-48
2023/01/08 05:35:15;;;;;;;10.65;2.00;;;7.40;99.90;;;;;;5052530;28;20098;-50
2023/01/08 05:37:41;;;;;;;8.93;2.10;;;7.40;99.90;;;;;;5053725;28;20036;-49
2023/01/08 05:40:08;;;;;;;13.48;2.25;;;7.40;99.90;;;;;;5052734;28;20045;-48
2023/01/08 05:42:35;;;;;;;11.23;2.30;;;7.40;99.90;;;;;;5053400;28;20498;-48
2023/01/08 05:45:01;;;;;;;15.55;2.70;;;7.40;99.90;;;;;;5053594;28;20091;-48
2023/01/08 05:47:28;;;;;;;13.65;2.30;;;7.40;99.90;;;;;;5053257;28;20044;-46
2023/01/08 05:49:55;;;;;;;12.23;2.08;;;7.40;99.90;;;;;;5052453;28;20116;-46
2023/01/08 05:52:22;;;;;;;12.07;1.90;;;7.40;99.90;;;;;;5053781;28;20065;-48
2023/01/08 05:54:48;;;;;;;16.35;2.60;;;7.50;99.90;;;;;;5053414;28;20459;-46
2023/01/08 05:57:15;;;;;;;9.65;1.80;;;7.50;99.90;;;;;;5052966;28;20052;-50
2023/01/08 05:59:42;;;;;;;9.43;1.77;;;7.50;99.90;;;;;;5053110;28;20045;-54
2023/01/08 06:02:09;;;;;;;10.80;2.33;;;7.50;99.90;;;;;;5053152;28;20044;-48
2023/01/08 06:04:35;;;;;;;10.93;2.10;;;7.60;99.90;;;;;;5052995;28;20037;-47
2023/01/08 06:07:02;;;;;;;15.07;2.53;;;7.60;99.90;;;;;;5053020;28;20060;-49
2023/01/08 06:09:29;;;;;;;14.15;2.30;;;7.60;99.90;;;;;;5052718;28;20044;-46
2023/01/08 06:11:56;;;;;;;12.55;2.60;;;7.60;99.90;;;;;;5052995;28;20045;-49
2023/01/08 06:14:23;;;;;;;13.30;3.60;;;7.60;99.90;;;;;;5052894;28;20045;-50
2023/01/08 06:16:50;;;;;;;13.18;2.13;;;7.60;99.90;;;;;;5052781;28;20046;-52
2023/01/08 06:19:17;;;;;;;11.57;1.90;;;7.60;99.90;;;;;;5051609;28;20102;-49
2023/01/08 06:21:44;;;;;;;10.18;2.47;;;7.60;99.90;;;;;;5052738;28;20124;-48
2023/01/08 06:24:11;;;;;;;11.05;1.65;;;7.60;99.90;;;;;;5050612;28;20096;-46
2023/01/08 06:26:38;;;;;;;10.05;1.67;;;7.50;99.90;;;;;;5033601;28;20056;-56
2023/01/08 06:29:05;;;;;;;7.88;1.88;;;7.40;99.90;;;;;;5033554;28;20099;-50
2023/01/08 06:31:31;;;;;;;12.50;1.85;;;7.40;99.90;;;;;;5042305;28;20041;-48
2023/01/08 06:33:58;;;;;;;8.48;1.55;;;7.40;99.90;;;;;;5052845;28;20094;-47
2023/01/08 06:36:25;;;;;;;9.35;1.73;;;7.40;99.90;;;;;;5052661;28;20067;-50
2023/01/08 06:38:52;;;;;;;7.13;1.42;;;7.30;99.90;;;;;;5052897;28;20037;-48
2023/01/08 06:41:18;;;;;;;7.13;1.30;;;7.30;99.90;;;;;;5052704;28;20486;-48
2023/01/08 06:43:45;;;;;;;11.68;1.88;;;7.30;99.90;;;;;;5052340;28;20048;-47
2023/01/08 06:46:13;;;;;;;11.98;1.80;;;7.30;99.90;;;;;;5052769;28;20090;-46
2023/01/08 06:48:40;;;;;;;10.88;1.70;;;7.30;99.90;;;;;;5052625;28;20120;-46
2023/01/08 06:51:07;;;;;;;8.95;1.33;;;7.30;99.90;;;;;;5052984;28;20044;-46
2023/01/08 06:53:33;;;;;;;13.07;2.20;;;7.30;99.90;;;;;;5054552;28;20048;-48
2023/01/08 06:56:00;;;;;;;12.77;1.45;;;7.30;99.90;;;;;;5056453;28;20052;-54
2023/01/08 06:58:27;;;;;;;10.75;1.73;;;7.30;99.90;;;;;;5056561;28;20526;-50
2023/01/08 07:00:54;;;;;;;13.40;2.03;;;7.40;99.90;;;;;;5056832;28;20099;-49
2023/01/08 07:03:21;;;;;;;13.50;2.30;;;7.40;99.90;;;;;;5056741;28;20098;-52
2023/01/08 07:05:49;;;;;;;11.93;2.00;;;7.40;99.90;;;;;;5056303;28;20041;-49
2023/01/08 07:08:16;;;;;;;12.90;2.30;;;7.40;99.90;;;;;;5056034;28;20494;-52
2023/01/08 07:10:43;;;;;;;16.70;2.53;;;7.50;99.90;;;;;;5056588;28;20041;-53
2023/01/08 07:13:11;;;;;;;9.95;1.92;;;7.50;99.90;;;;;;5056797;28;20060;-52
2023/01/08 07:15:38;;;;;;;10.80;2.10;;;7.50;99.90;;;;;;5056293;28;20049;-55
2023/01/08 07:18:05;;;;;;;14.30;1.80;;;7.50;99.90;;;;;;5056063;28;20064;-54
2023/01/08 07:20:31;;;;;;;12.10;1.95;;;7.50;99.90;;;;;;5061733;28;20098;-51
2023/01/08 07:22:58;;;;;;;15.57;2.80;;;7.50;99.90;;;;;;5037110;28;20033;-53
2023/01/08 07:25:25;;;;;;;12.85;2.30;;;7.50;99.90;;;;;;5036920;28;20481;-54
2023/01/08 07:27:52;;;;;;;13.93;2.50;;;7.50;99.90;;;;;;5037156;28;20046;-54
2023/01/08 07:30:18;;;;;;;12.65;2.08;;;7.50;99.90;;;;;;5037010;28;20436;-55
2023/01/08 07:32:55;;;;;;;15.00;2.20;;;7.50;99.90;;;;;;5036974;28;20420;-51
2023/01/08 07:35:22;;;;;;;15.10;2.15;;;7.50;99.90;;;;;;5036716;28;20040;-52
2023/01/08 07:37:49;;;;;;;11.20;1.80;;;7.50;99.90;;;;;;5051524;28;20045;-52
2023/01/08 07:40:15;;;;;;;12.90;2.28;;;7.50;99.90;;;;;;5055947;28;20094;-47
2023/01/08 07:42:42;;;;;;;12.35;2.00;;;7.60;99.90;;;;;;5054693;28;20443;-55
2023/01/08 07:45:09;;;;;;;10.23;1.88;;;7.60;99.90;;;;;;5055850;28;20044;-52
2023/01/08 07:47:35;;;;;;;10.43;1.98;;;7.60;99.90;;;;;;5056033;28;20079;-50
2023/01/08 07:50:02;;;;;;;9.43;2.25;;;7.50;99.90;;;;;;5055704;28;20040;-49
2023/01/08 07:52:29;;;;;;;10.48;1.58;;;7.50;99.90;;;;;;5055687;28;20049;-54
2023/01/08 07:54:56;;;;;;;10.88;1.73;;;7.40;99.90;;;;;;5055830;28;20472;-51
2023/01/08 07:57:22;;;;;;;10.32;1.70;;;7.40;99.90;;;;;;5055770;28;20103;-52
2023/01/08 07:59:49;;;;;;;7.97;1.65;;;7.40;99.90;;;;;;5055836;28;20495;-53
2023/01/08 08:02:16;;;;;;;16.65;1.90;;;7.30;99.90;;;;;;5055410;28;20065;-51
2023/01/08 08:04:43;;;;;;;12.10;1.92;;;7.30;99.90;;;;;;5055328;28;20052;-52
2023/01/08 08:07:10;;;;;;;9.38;1.45;;;7.30;99.90;;;;;;5054104;28;20044;-57
2023/01/08 08:09:37;;;;;;;16.90;2.30;;;7.20;99.90;;;;;;5055664;28;20041;-57
2023/01/08 08:12:03;;;;;;;12.63;2.20;;;7.20;99.90;;;;;;5055419;28;20037;-53
2023/01/08 08:14:30;;;;;;;15.73;2.40;;;7.20;99.90;;;;;;5055424;28;20045;-54
2023/01/08 08:16:57;;;;;;;13.27;2.13;;;7.20;99.90;;;;;;5055202;28;20056;-55
2023/01/08 08:19:23;;;;;;;16.77;2.08;;;7.20;99.90;;;;;;5055073;28;20162;-55
2023/01/08 08:21:50;;;;;;;13.32;2.13;;;7.20;99.90;;;;;;5055420;28;20056;-51
2023/01/08 08:24:17;;;;;;;12.10;2.17;;;7.20;99.90;;;;;;5055433;28;20037;-53
2023/01/08 08:26:44;;;;;;;10.65;1.67;;;7.20;99.90;;;;;;5055215;28;20131;-53
2023/01/08 08:29:11;;;;;;;17.13;2.20;;;7.20;99.90;;;;;;5035603;28;20045;-52
2023/01/08 08:31:37;;;;;;;14.35;2.25;;;7.20;99.90;;;;;;5035506;28;20045;-54
2023/01/08 08:34:06;;;;;;;12.95;2.40;;;7.20;99.90;;;;;;5043882;28;20080;-54
2023/01/08 08:36:33;;;;;;;12.63;2.25;;;7.20;99.90;;;;;;5035498;28;20037;-54
2023/01/08 08:39:00;;;;;;;13.02;1.88;;;7.20;99.90;;;;;;5041834;28;20068;-53
2023/01/08 08:41:26;;;;;;;13.98;1.90;;;7.20;99.90;;;;;;5035898;28;20481;-54
2023/01/08 08:43:53;;;;;;;11.13;1.70;;;7.20;99.90;;;;;;5035350;28;20041;-51
2023/01/08 08:46:20;;;;;;;17.75;2.10;;;7.20;99.90;;;;;;5035061;28;20088;-52
2023/01/08 08:48:47;;;;;;;12.80;2.03;;;7.20;99.90;;;;;;5035175;28;20100;-53
2023/01/08 08:51:14;;;;;;;16.20;2.25;;;7.20;99.90;;;;;;5048104;28;20072;-54
2023/01/08 08:53:40;;;;;;;13.93;2.00;;;7.20;99.90;;;;;;5053801;28;20045;-55
2023/01/08 08:56:07;;;;;;;11.60;2.10;;;7.20;99.90;;;;;;5054832;28;20120;-51
2023/01/08 08:58:34;;;;;;;14.50;2.17;;;7.20;99.90;;;;;;5054558;28;20057;-55
2023/01/08 09:01:01;;;;;;;16.50;2.72;;;7.20;99.90;;;;;;5054414;28;20103;-52
2023/01/08 09:03:27;;;;;;;16.23;2.20;;;7.20;99.90;;;;;;5054443;28;20048;-53
2023/01/08 09:05:54;;;;;;;13.75;2.10;;;7.30;99.90;;;;;;5054322;28;20048;-54
2023/01/08 09:08:22;;;;;;;12.80;2.42;;;7.30;99.90;;;;;;5054062;28;20053;-54
2023/01/08 09:10:49;;;;;;;22.85;3.17;;;7.30;99.90;;;;;;5054032;28;20070;-51
2023/01/08 09:13:16;;;;;;;16.33;2.95;;;7.30;99.90;;;;;;5054555;28;20044;-56
2023/01/08 09:15:43;;;;;;;13.45;2.78;;;7.30;99.90;;;;;;5053426;28;20496;-55
2023/01/08 09:18:10;;;;;;;19.55;3.10;;;7.30;99.90;;;;;;5054092;28;20132;-53
2023/01/08 09:20:36;;;;;;;13.98;2.15;;;7.40;99.90;;;;;;5054238;28;20094;-58
2023/01/08 09:23:03;;;;;;;17.00;2.63;;;7.40;99.90;;;;;;5054157;28;20114;-56
2023/01/08 09:25:30;;;;;;;16.98;2.63;;;7.40;99.90;;;;;;5054152;28;20450;-50
2023/01/08 09:27:57;;;;;;;13.45;2.65;;;7.50;99.90;;;;;;5053697;28;20124;-52
2023/01/08 09:30:23;;;;;;;15.88;2.95;;;7.40;99.90;;;;;;5053904;28;20045;-53
2023/01/08 09:32:50;;;;;;;20.02;2.85;;;7.40;99.90;;;;;;5053816;28;20519;-48
2023/01/08 09:35:17;;;;;;;19.55;3.03;;;7.50;99.90;;;;;;5053955;28;20045;-51
2023/01/08 09:37:44;;;;;;;19.98;3.55;;;7.40;99.90;;;;;;5052732;28;20455;-56
2023/01/08 09:40:11;;;;;;;17.13;3.00;;;7.50;99.90;;;;;;5053759;28;20098;-54
2023/01/08 09:42:37;;;;;;;16.52;2.75;;;7.50;99.90;;;;;;5053848;28;20500;-55
2023/01/08 09:45:04;;;;;;;22.73;3.47;;;7.50;99.90;;;;;;5053635;28;20049;-51
2023/01/08 09:47:31;;;;;;;19.65;3.72;;;7.50;99.90;;;;;;5053723;28;20492;-55
2023/01/08 09:49:58;;;;;;;15.65;3.03;;;7.60;99.90;;;;;;5053619;28;20041;-56
2023/01/08 09:52:25;;;;;;;22.55;3.40;;;7.70;99.90;;;;;;5052185;28;20143;-49
2023/01/08 09:54:52;;;;;;;18.23;3.33;;;7.80;99.90;;;;;;5052938;28;20033;-51
2023/01/08 09:57:18;;;;;;;15.93;2.92;;;7.80;99.90;;;;;;5053234;28;20037;-52
2023/01/08 09:59:46;;;;;;;18.40;3.08;;;8.00;99.90;;;;;;5050042;28;20053;-55
2023/01/08 10:02:13;;;;;;;16.85;2.92;;;8.10;99.90;;;;;;5038482;28;20048;-51
2023/01/08 10:04:40;;;;;;;15.43;3.15;;;8.20;99.90;;;;;;5034661;28;20420;-51
2023/01/08 10:07:07;;;;;;;18.50;3.47;;;8.40;99.90;;;;;;5033795;28;20042;-50
2023/01/08 10:09:33;;;;;;;18.00;2.83;;;8.50;99.90;;;;;;5040347;28;20103;-52
2023/01/08 10:12:00;;;;;;;18.65;3.20;;;8.50;99.90;;;;;;5032752;28;20041;-54
2023/01/08 10:14:27;;;;;;;21.17;3.45;;;8.60;99.90;;;;;;5034040;28;20124;-51
2023/01/08 10:16:54;;;;;;;23.63;3.97;;;8.60;99.90;;;;;;5034341;28;20088;-54
2023/01/08 10:19:20;;;;;;;22.33;3.90;;;8.60;99.90;;;;;;5033751;28;20077;-50
2023/01/08 10:21:47;;;;;;;22.67;3.47;;;8.70;99.90;;;;;;5034022;28;20464;-53
2023/01/08 10:24:14;;;;;;;21.48;4.45;;;8.70;99.90;;;;;;5046418;28;20049;-52
2023/01/08 10:26:41;;;;;;;26.95;4.55;;;8.70;99.90;;;;;;5052634;28;20053;-55
2023/01/08 10:29:07;;;;;;;15.77;3.72;;;8.80;99.90;;;;;;5051990;28;20395;-57
2023/01/08 10:31:34;;;;;;;18.73;3.30;;;8.80;99.90;;;;;;5036908;28;20041;-55
2023/01/08 10:34:01;;;;;;;13.98;2.70;;;8.80;99.90;;;;;;5032338;28;20051;-54
2023/01/08 10:36:28;;;;;;;23.75;3.47;;;8.80;99.90;;;;;;5033839;28;20499;-55
2023/01/08 10:38:54;;;;;;;20.80;3.90;;;8.80;99.90;;;;;;5033967;28;20103;-48
2023/01/08 10:41:21;;;;;;;21.60;3.47;;;8.90;99.90;;;;;;5033563;28;20080;-54
2023/01/08 10:43:48;;;;;;;19.02;3.83;;;9.00;99.90;;;;;;5033771;28;20080;-52
2023/01/08 10:46:14;;;;;;;23.02;3.92;;;9.00;99.90;;;;;;5033612;28;20496;-54
2023/01/08 10:48:41;;;;;;;21.05;3.47;;;9.10;99.90;;;;;;5033196;28;20418;-56
2023/01/08 10:51:08;;;;;;;19.00;3.60;;;9.20;99.90;;;;;;5033161;28;20072;-55
2023/01/08 10:53:35;;;;;;;21.38;3.17;;;9.20;99.90;;;;;;5036817;28;20045;-56
2023/01/08 10:56:01;;;;;;;20.13;3.25;;;9.30;99.90;;;;;;5052108;28;20461;-53
2023/01/08 10:58:28;;;;;;;17.05;3.03;;;9.30;99.90;;;;;;5052093;28;20048;-52
2023/01/08 11:00:56;;;;;;;22.23;3.33;;;9.40;99.90;;;;;;5051758;28;20507;-52
2023/01/08 11:03:23;;;;;;;19.20;3.70;;;9.40;99.90;;;;;;5050919;28;20154;-50
2023/01/08 11:05:50;;;;;;;13.95;2.85;;;9.40;99.90;;;;;;5052174;28;20060;-50
2023/01/08 11:08:16;;;;;;;22.42;3.40;;;9.40;99.90;;;;;;5052613;28;20430;-51
2023/01/08 11:10:43;;;;;;;21.38;3.45;;;9.40;99.90;;;;;;5042978;28;20038;-53
2023/01/08 11:13:10;;;;;;;17.02;4.13;;;9.50;99.90;;;;;;5042611;28;20046;-54
2023/01/08 11:15:37;;;;;;;20.67;3.63;;;9.50;99.90;;;;;;5046627;28;20045;-53
2023/01/08 11:18:04;;;;;;;21.73;3.58;;;9.50;99.90;;;;;;5048805;28;20140;-49
2023/01/08 11:20:31;;;;;;;17.90;3.00;;;9.50;99.90;;;;;;5036232;28;20102;-54
2023/01/08 11:22:57;;;;;;;17.95;4.05;;;9.50;99.90;;;;;;5041247;28;20049;-54
2023/01/08 11:25:24;;;;;;;19.27;3.35;;;9.50;99.90;;;;;;5035065;28;20464;-51
2023/01/08 11:27:51;;;;;;;19.35;3.50;;;9.50;99.90;;;;;;5042773;28;20100;-51
2023/01/08 11:30:18;;;;;;;18.02;2.83;;;9.50;99.90;;;;;;5045440;28;20488;-53
2023/01/08 11:32:45;;;;;;;18.92;3.83;;;9.50;99.90;;;;;;5051582;28;20037;-50
2023/01/08 11:35:12;;;;;;;16.85;3.72;;;9.60;99.90;;;;;;5049269;28;20500;-50
2023/01/08 11:37:39;;;;;;;19.10;2.92;;;9.70;99.90;;;;;;5032540;28;20038;-53
2023/01/08 11:40:05;;;;;;;18.58;3.85;;;9.70;99.90;;;;;;5045089;28;20087;-53
2023/01/08 11:42:32;;;;;;;19.30;3.90;;;9.70;99.90;;;;;;5036079;28;20056;-50
2023/01/08 11:44:59;;;;;;;18.70;3.38;;;9.70;99.90;;;;;;5054584;28;20559;-53
2023/01/08 11:47:25;;;;;;;17.33;3.13;;;9.70;99.90;;;;;;5055141;28;20045;-50
2023/01/08 11:49:52;;;;;;;22.23;3.60;;;9.70;99.90;;;;;;5047582;28;20041;-50
2023/01/08 11:52:19;;;;;;;16.95;3.47;;;9.70;99.90;;;;;;5041100;28;20091;-50
2023/01/08 11:54:46;;;;;;;13.13;2.80;;;9.80;99.90;;;;;;5037489;28;20042;-52
2023/01/08 11:57:12;;;;;;;18.40;3.47;;;9.90;99.90;;;;;;5047502;28;20087;-55
2023/01/08 11:59:39;;;;;;;20.95;4.15;;;10.00;99.90;;;;;;5047062;28;20508;-51
2023/01/08 12:02:06;;;;;;;17.90;3.78;;;10.10;99.90;;;;;;5040624;28;20559;-55
2023/01/08 12:04:33;;;;;;;16.90;3.55;;;10.20;99.90;;;;;;5034568;28;20053;-52
2023/01/08 12:06:59;;;;;;;20.30;3.33;;;10.30;99.90;;;;;;5040954;28;20052;-53
2023/01/08 12:09:26;;;;;;;19.23;4.00;;;10.40;99.90;;;;;;5055172;28;20491;-53
2023/01/08 12:11:53;;;;;;;16.52;3.20;;;10.40;99.90;;;;;;5053055;28;20496;-52
2023/01/08 12:14:19;;;;;;;22.65;3.80;;;10.40;99.90;;;;;;5055088;28;20068;-53
2023/01/08 12:16:46;;;;;;;19.13;4.13;;;10.40;99.90;;;;;;5052854;28;20092;-51
2023/01/08 12:19:13;;;;;;;18.13;3.75;;;10.30;99.90;;;;;;5055224;28;20053;-51
2023/01/08 12:21:40;;;;;;;18.00;3.38;;;10.20;99.90;;;;;;5055129;28;20033;-51
2023/01/08 12:24:07;;;;;;;19.90;3.70;;;10.30;99.90;;;;;;5053420;28;20102;-52
2023/01/08 12:26:33;;;;;;;19.58;3.80;;;10.20;99.90;;;;;;5053223;28;20087;-53
2023/01/08 12:29:00;;;;;;;18.40;3.47;;;10.20;99.90;;;;;;5055134;28;20116;-50
2023/01/08 12:31:29;;;;;;;17.00;3.78;;;10.30;99.90;;;;;;5053576;28;20087;-53
2023/01/08 12:33:56;;;;;;;19.50;3.53;;;10.30;99.90;;;;;;5054771;28;20036;-51
2023/01/08 12:36:23;;;;;;;18.10;3.63;;;10.20;99.90;;;;;;5054963;28;20072;-55
2023/01/08 12:38:49;;;;;;;21.38;3.83;;;10.10;99.90;;;;;;5054759;28;20053;-51
2023/01/08 12:41:16;;;;;;;16.27;3.33;;;10.10;99.90;;;;;;5054865;28;20106;-52
2023/01/08 12:43:43;;;;;;;17.73;3.83;;;10.10;99.90;;;;;;5054593;28;20476;-51
2023/01/08 12:46:10;;;;;;;17.38;3.40;;;10.00;99.90;;;;;;5053281;28;20520;-52
2023/01/08 12:48:36;;;;;;;22.50;3.35;;;10.00;99.90;;;;;;5051376;28;20052;-53